Time;durP1;ratioP1;P1;durP2;ratioP2;P2;SDS_P1;SDS_P2;PMS_P1;PMS_P2;Temp;Humidity;BMP_temperature;BMP_pressure;BME280_temperature;BME280_humidity;BME280_pressure;Samples;Min_cycle;Max_cycle;Signal;HPM_P1;HPM_P2
2022/03/29 00:00:23;;;;;;;;;;;;;;;9.66;61.31;100031.22;5006662;28;19925;-84
2022/03/29 00:02:49;;;;;;;;;;;;;;;9.80;60.65;100029.38;5005062;28;19925;-85
2022/03/29 00:05:14;;;;;;;;;;;;;;;9.97;60.43;100028.38;5006383;28;19987;-84
2022/03/29 00:07:40;;;;;;;;;;;;;;;9.85;60.39;100026.69;5006861;28;19925;-84
2022/03/29 00:10:06;;;;;;;;;;;;;;;9.69;60.94;100031.22;5007053;28;20382;-84
2022/03/29 00:12:33;;;;;;;;;;;;;;;9.82;60.94;100022.34;5005691;28;19929;-84
2022/03/29 00:14:58;;;;;;;;;;;;;;;9.78;59.17;100025.88;5006276;28;20011;-84
2022/03/29 00:17:23;;;;;;;;;;;;;;;9.00;58.49;100026.25;5006562;28;20039;-84
2022/03/29 00:19:49;;;;;;;;;;;;;;;8.98;59.79;100028.91;5006907;28;20012;-84
2022/03/29 00:22:14;;;;;;;;;;;;;;;9.09;59.26;100019.19;5007239;28;19969;-84
2022/03/29 00:24:39;;;;;;;;;;;;;;;9.09;60.22;100021.84;5005779;28;20388;-84
2022/03/29 00:27:05;;;;;;;;;;;;;;;9.22;59.69;100019.16;5006480;28;19988;-84
2022/03/29 00:29:31;;;;;;;;;;;;;;;9.26;59.17;100019.13;5007426;28;19924;-84
2022/03/29 00:31:56;;;;;;;;;;;;;;;9.32;59.76;100013.84;5009249;28;20008;-83
2022/03/29 00:34:21;;;;;;;;;;;;;;;9.28;60.06;100012.13;5010409;28;19926;-84
2022/03/29 00:36:47;;;;;;;;;;;;;;;9.35;60.01;100010.31;5009171;28;19976;-85
2022/03/29 00:39:12;;;;;;;;;;;;;;;9.41;59.96;100007.66;5010243;28;19925;-84
2022/03/29 00:41:37;;;;;;;;;;;;;;;9.40;60.17;100005.91;5035288;28;19929;-83
2022/03/29 00:44:05;;;;;;;;;;;;;;;9.25;61.13;100006.88;5010479;28;19952;-84
2022/03/29 00:46:31;;;;;;;;;;;;;;;9.35;60.39;100009.47;5009875;28;19943;-84
2022/03/29 00:48:57;;;;;;;;;;;;;;;9.43;60.78;99999.75;5009780;28;19925;-83
2022/03/29 00:51:23;;;;;;;;;;;;;;;9.47;60.65;99997.09;5010369;28;19929;-85
2022/03/29 00:53:48;;;;;;;;;;;;;;;9.55;60.46;100002.31;5010217;28;20706;-84
2022/03/29 00:56:14;;;;;;;;;;;;;;;9.57;60.50;99997.03;5041968;28;19949;-85
2022/03/29 00:58:39;;;;;;;;;;;;;;;9.63;60.81;100005.78;5007225;28;19984;-85
2022/03/29 01:01:05;;;;;;;;;;;;;;;9.74;59.90;100000.44;4990664;28;19929;-85
2022/03/29 01:03:30;;;;;;;;;;;;;;;9.60;60.17;99989.13;4990829;28;19917;-85
2022/03/29 01:05:56;;;;;;;;;;;;;;;9.63;60.12;99991.72;4993544;28;19959;-84
2022/03/29 01:08:22;;;;;;;;;;;;;;;9.63;60.12;99983.84;5009395;28;19979;-84
2022/03/29 01:10:48;;;;;;;;;;;;;;;9.62;60.19;99976.81;4992108;28;19926;-84
2022/03/29 01:13:14;;;;;;;;;;;;;;;9.66;60.02;99975.91;5041858;28;20331;-84
2022/03/29 01:15:40;;;;;;;;;;;;;;;9.47;60.55;99972.53;4993317;28;19922;-84
2022/03/29 01:18:06;;;;;;;;;;;;;;;9.48;61.04;99967.25;5006081;28;19925;-84
2022/03/29 01:20:32;;;;;;;;;;;;;;;9.63;60.11;99961.00;5040876;28;19926;-84
2022/03/29 01:22:59;;;;;;;;;;;;;;;9.50;58.48;99961.97;5008830;28;19929;-84
2022/03/29 01:25:34;;;;;;;;;;;;;;;9.05;58.53;99961.31;5008331;28;19929;-84
2022/03/29 01:28:01;;;;;;;;;;;;;;;8.84;58.46;99960.53;5008314;28;19925;-84
2022/03/29 01:30:26;;;;;;;;;;;;;;;8.92;58.60;99961.38;5009449;28;19918;-85
2022/03/29 01:32:52;;;;;;;;;;;;;;;8.80;59.71;99953.53;5008608;28;19983;-85
2022/03/29 01:35:22;;;;;;;;;;;;;;;8.82;59.58;99950.88;5008915;28;19929;-84
2022/03/29 01:37:48;;;;;;;;;;;;;;;8.87;60.06;99946.50;5010017;28;19921;-84
2022/03/29 01:40:15;;;;;;;;;;;;;;;8.88;59.92;99945.59;5009214;28;20362;-84
2022/03/29 01:42:46;;;;;;;;;;;;;;;8.85;59.67;99943.88;5008360;28;20016;-83
2022/03/29 01:45:11;;;;;;;;;;;;;;;8.68;60.71;99935.16;5008894;28;19921;-83
2022/03/29 01:47:36;;;;;;;;;;;;;;;8.65;60.87;99936.06;5008019;28;20475;-85
2022/03/29 01:50:02;;;;;;;;;;;;;;;8.58;61.19;99929.94;5024316;28;19921;-85
2022/03/29 01:52:27;;;;;;;;;;;;;;;8.52;62.02;99926.44;5009590;28;19928;-84
2022/03/29 01:54:52;;;;;;;;;;;;;;;8.45;62.20;99924.72;5009187;28;19918;-85
2022/03/29 01:57:18;;;;;;;;;;;;;;;8.23;63.68;99923.00;5008765;28;19980;-86
2022/03/29 02:02:27;;;;;;;;;;;;;;;7.96;64.24;99907.25;5008807;28;19992;-86
2022/03/29 02:04:52;;;;;;;;;;;;;;;8.20;62.85;99896.72;5008928;28;19921;-86
2022/03/29 02:07:18;;;;;;;;;;;;;;;8.24;62.40;99898.44;5007654;28;20380;-86
2022/03/29 02:09:43;;;;;;;;;;;;;;;8.07;61.85;99890.59;5008755;28;20421;-85
2022/03/29 02:12:12;;;;;;;;;;;;;;;8.07;61.94;99900.22;5008409;28;19971;-84
2022/03/29 02:14:38;;;;;;;;;;;;;;;8.08;61.60;99896.75;5008149;28;19957;-84
2022/03/29 02:17:04;;;;;;;;;;;;;;;8.12;61.75;99897.59;4994587;28;19921;-84
2022/03/29 02:19:29;;;;;;;;;;;;;;;7.84;62.47;99895.88;4988641;28;20658;-84
2022/03/29 02:21:54;;;;;;;;;;;;;;;7.98;62.69;99897.63;5020455;28;19929;-85
2022/03/29 02:24:19;;;;;;;;;;;;;;;8.05;62.88;99902.00;4988884;28;19918;-84
2022/03/29 02:26:45;;;;;;;;;;;;;;;8.22;62.15;99892.31;4999212;28;19925;-84
2022/03/29 02:29:10;;;;;;;;;;;;;;;8.03;62.28;99891.50;5016961;28;19932;-85
2022/03/29 02:31:36;;;;;;;;;;;;;;;7.92;62.80;99887.13;5028714;28;19917;-85
2022/03/29 02:34:02;;;;;;;;;;;;;;;7.90;62.94;99889.75;5018179;28;19991;-85
2022/03/29 02:36:28;;;;;;;;;;;;;;;7.84;62.70;99887.13;5007615;28;20004;-84
2022/03/29 02:38:53;;;;;;;;;;;;;;;7.97;62.69;99880.09;5007574;28;20020;-83
2022/03/29 02:41:19;;;;;;;;;;;;;;;7.92;62.44;99889.75;5038276;28;19932;-83
2022/03/29 02:43:44;;;;;;;;;;;;;;;7.87;62.25;99890.63;5006863;28;19945;-83
2022/03/29 02:46:09;;;;;;;;;;;;;;;7.81;62.80;99879.25;5006915;28;20349;-84
2022/03/29 02:48:35;;;;;;;;;;;;;;;7.82;63.07;99888.88;5007915;28;20000;-85
2022/03/29 02:51:00;;;;;;;;;;;;;;;7.98;61.97;99874.84;5007597;28;19927;-85
2022/03/29 02:53:25;;;;;;;;;;;;;;;7.90;61.92;99876.63;5006946;28;19926;-85
2022/03/29 02:55:51;;;;;;;;;;;;;;;7.67;62.68;99871.38;5007848;28;19955;-86
2022/03/29 02:58:16;;;;;;;;;;;;;;;7.49;62.41;99881.00;5006602;28;20020;-85
2022/03/29 03:00:41;;;;;;;;;;;;;;;6.90;63.32;99879.16;5013121;28;19987;-90
2022/03/29 03:03:07;;;;;;;;;;;;;;;7.04;63.94;99871.31;5060411;28;20478;-89
2022/03/29 03:05:32;;;;;;;;;;;;;;;7.23;64.52;99874.84;5025235;28;20345;-91
2022/03/29 03:07:57;;;;;;;;;;;;;;;7.17;65.45;99878.34;5006843;28;20786;-87
2022/03/29 03:10:23;;;;;;;;;;;;;;;6.98;66.17;99873.06;5007216;28;20003;-88
2022/03/29 03:12:49;;;;;;;;;;;;;;;6.97;66.52;99870.44;5007596;28;19925;-91
2022/03/29 03:15:15;;;;;;;;;;;;;;;7.12;65.87;99872.19;5008455;28;20399;-87
2022/03/29 03:17:41;;;;;;;;;;;;;;;7.05;64.96;99867.84;5022632;28;19928;-89
2022/03/29 03:20:07;;;;;;;;;;;;;;;7.08;64.45;99863.47;5039813;28;19921;-87
2022/03/29 03:22:35;;;;;;;;;;;;;;;6.95;64.98;99861.66;5035372;28;19928;-87
2022/03/29 03:25:00;;;;;;;;;;;;;;;7.03;64.88;99864.31;5042633;28;19929;-88
2022/03/29 03:27:25;;;;;;;;;;;;;;;7.19;63.86;99854.75;5023174;28;19947;-87
2022/03/29 03:29:51;;;;;;;;;;;;;;;7.28;63.47;99858.25;5006550;28;20714;-86
2022/03/29 03:32:16;;;;;;;;;;;;;;;7.28;63.04;99852.13;5007887;28;19921;-89
2022/03/29 03:34:41;;;;;;;;;;;;;;;7.19;63.41;99870.47;5008125;28;20032;-87
2022/03/29 03:37:07;;;;;;;;;;;;;;;7.24;63.00;99855.63;4991826;28;19933;-84
2022/03/29 03:39:34;;;;;;;;;;;;;;;7.28;62.96;99866.13;5002781;28;20359;-86
2022/03/29 03:42:03;;;;;;;;;;;;;;;7.31;62.72;99860.88;5019758;28;19922;-88
2022/03/29 03:44:28;;;;;;;;;;;;;;;7.37;61.97;99864.38;4988387;28;19922;-87
2022/03/29 03:46:53;;;;;;;;;;;;;;;7.31;62.29;99862.63;5023868;28;19936;-85
2022/03/29 03:49:19;;;;;;;;;;;;;;;7.23;62.82;99867.88;4989073;28;20013;-85
2022/03/29 03:51:44;;;;;;;;;;;;;;;7.21;62.61;99869.59;4988605;28;19928;-89
2022/03/29 03:54:11;;;;;;;;;;;;;;;7.21;62.94;99871.34;5005660;28;19925;-92
2022/03/29 03:56:37;;;;;;;;;;;;;;;7.29;62.46;99861.72;5040334;28;19921;-91
2022/03/29 03:59:02;;;;;;;;;;;;;;;7.27;63.29;99864.34;5019914;28;19921;-85
2022/03/29 04:01:28;;;;;;;;;;;;;;;7.33;63.54;99864.34;5026173;28;19925;-84
2022/03/29 04:03:53;;;;;;;;;;;;;;;7.42;62.49;99867.88;5027229;28;19961;-84
2022/03/29 04:06:18;;;;;;;;;;;;;;;7.48;62.13;99866.13;5025282;28;19932;-85
2022/03/29 04:08:44;;;;;;;;;;;;;;;7.47;62.74;99861.75;5019067;28;20307;-84
2022/03/29 04:11:09;;;;;;;;;;;;;;;7.50;62.57;99856.50;5014739;28;19931;-87
2022/03/29 04:13:35;;;;;;;;;;;;;;;7.50;62.18;99860.88;5046345;28;20008;-88
2022/03/29 04:16:01;;;;;;;;;;;;;;;7.42;62.43;99857.38;5025830;28;19931;-87
2022/03/29 04:18:26;;;;;;;;;;;;;;;7.40;62.86;99867.00;5022378;28;19926;-86
2022/03/29 04:20:53;;;;;;;;;;;;;;;7.54;62.31;99867.88;5026076;28;19926;-86
2022/03/29 04:23:19;;;;;;;;;;;;;;;7.55;62.63;99866.13;5002303;28;19933;-87
2022/03/29 04:25:45;;;;;;;;;;;;;;;7.67;62.29;99864.38;5021928;28;19972;-88
2022/03/29 04:28:10;;;;;;;;;;;;;;;7.66;61.74;99867.00;4997201;28;19969;-88
2022/03/29 04:30:35;;;;;;;;;;;;;;;7.67;61.72;99866.13;5002213;28;19921;-87
2022/03/29 04:33:01;;;;;;;;;;;;;;;7.56;61.84;99867.88;5010838;28;19932;-89
2022/03/29 04:35:27;;;;;;;;;;;;;;;7.05;64.33;99867.84;5010683;28;19922;-89
2022/03/29 04:37:53;;;;;;;;;;;;;;;7.22;64.24;99875.75;5010766;28;20414;-86
2022/03/29 04:40:19;;;;;;;;;;;;;;;7.41;63.36;99864.38;5010011;28;20396;-86
2022/03/29 04:42:45;;;;;;;;;;;;;;;7.48;63.75;99860.00;5011038;28;19922;-87
2022/03/29 04:45:12;;;;;;;;;;;;;;;7.41;63.59;99866.13;5011797;28;19968;-88
2022/03/29 04:47:37;;;;;;;;;;;;;;;7.46;63.38;99864.38;5025065;28;20323;-83
2022/03/29 04:50:03;;;;;;;;;;;;;;;7.46;63.50;99864.38;5011274;28;19921;-92
2022/03/29 04:52:28;;;;;;;;;;;;;;;7.71;62.37;99871.38;5010701;28;19943;-87
2022/03/29 04:54:53;;;;;;;;;;;;;;;7.77;63.35;99870.50;5009009;28;19968;-92
2022/03/29 04:57:18;;;;;;;;;;;;;;;7.64;63.92;99877.50;5042670;28;20452;-89
2022/03/29 04:59:44;;;;;;;;;;;;;;;7.70;64.41;99872.25;5014232;28;20447;-90
2022/03/29 05:02:09;;;;;;;;;;;;;;;7.82;64.10;99876.63;5010620;28;20008;-89
2022/03/29 05:04:35;;;;;;;;;;;;;;;7.91;64.17;99875.75;5009343;28;19925;-89
2022/03/29 05:07:00;;;;;;;;;;;;;;;8.08;63.80;99870.47;5009844;28;19964;-90
2022/03/29 05:09:25;;;;;;;;;;;;;;;8.26;63.60;99869.53;5010185;28;19921;-92
2022/03/29 05:11:50;;;;;;;;;;;;;;;8.16;63.13;99875.72;5042115;28;20479;-89
2022/03/29 05:14:16;;;;;;;;;;;;;;;8.23;63.09;99874.78;5009744;28;20438;-89
2022/03/29 05:16:41;;;;;;;;;;;;;;;8.15;63.46;99881.81;5008891;28;19925;-88
2022/03/29 05:19:06;;;;;;;;;;;;;;;8.04;64.57;99871.34;5010075;28;19937;-90
2022/03/29 05:21:32;;;;;;;;;;;;;;;8.38;63.84;99869.50;5007797;28;20031;-89
2022/03/29 05:23:57;;;;;;;;;;;;;;;8.44;63.17;99863.38;5040024;28;20395;-87
2022/03/29 05:26:24;;;;;;;;;;;;;;;8.54;63.57;99864.22;5008280;28;20037;-88
2022/03/29 05:28:49;;;;;;;;;;;;;;;8.84;64.34;99857.94;5009868;28;20304;-86
2022/03/29 05:31:15;;;;;;;;;;;;;;;9.26;62.93;99861.19;5025052;28;19914;-89
2022/03/29 05:33:40;;;;;;;;;;;;;;;9.53;62.05;99863.63;5025143;28;19921;-89
2022/03/29 05:36:06;;;;;;;;;;;;;;;9.66;62.10;99870.53;5039848;28;20004;-89
2022/03/29 05:38:31;;;;;;;;;;;;;;;9.85;61.21;99866.88;5024178;28;19929;-87
2022/03/29 05:40:56;;;;;;;;;;;;;;;9.95;60.81;99869.41;5009739;28;19971;-89
2022/03/29 05:43:21;;;;;;;;;;;;;;;10.17;60.57;99876.19;5007713;28;20056;-91
2022/03/29 05:48:51;;;;;;;;;;;;;;;10.23;58.84;99867.38;5022674;28;19922;-88
2022/03/29 05:48:52;;;;;;;;;;;;;;;10.30;59.35;99876.06;5008716;28;19925;-87
2022/03/29 05:51:17;;;;;;;;;;;;;;;10.38;59.09;99869.00;5007871;28;20424;-88
2022/03/29 05:53:43;;;;;;;;;;;;;;;10.31;58.85;99868.16;5007764;28;20044;-89
2022/03/29 05:56:08;;;;;;;;;;;;;;;10.18;58.85;99856.00;5041072;28;19924;-86
2022/03/29 05:58:34;;;;;;;;;;;;;;;10.33;58.49;99857.63;4998883;28;19975;-87
2022/03/29 06:00:59;;;;;;;;;;;;;;;10.92;57.93;99860.38;5009231;28;20311;-86
2022/03/29 06:03:25;;;;;;;;;;;;;;;10.85;57.41;99859.59;5024149;28;19922;-85
2022/03/29 06:05:51;;;;;;;;;;;;;;;10.95;57.40;99860.34;5008033;28;19926;-88
2022/03/29 06:08:16;;;;;;;;;;;;;;;11.08;57.46;99856.63;5026824;28;19980;-86
2022/03/29 06:10:42;;;;;;;;;;;;;;;11.33;55.58;99855.41;5023106;28;20872;-86
2022/03/29 06:13:08;;;;;;;;;;;;;;;11.57;53.79;99851.47;5008470;28;19922;-86
2022/03/29 06:15:34;;;;;;;;;;;;;;;11.77;53.66;99849.41;5008099;28;19924;-87
2022/03/29 06:18:00;;;;;;;;;;;;;;;12.08;53.66;99845.34;5008178;28;19991;-86
2022/03/29 06:20:26;;;;;;;;;;;;;;;12.60;53.40;99846.94;5007949;28;20451;-86
2022/03/29 06:22:51;;;;;;;;;;;;;;;12.88;51.70;99849.00;5007033;28;19921;-86
2022/03/29 06:25:16;;;;;;;;;;;;;;;12.94;50.92;99840.06;5008524;28;20397;-86
2022/03/29 06:27:42;;;;;;;;;;;;;;;12.93;50.72;99833.91;5008649;28;20378;-84
2022/03/29 06:30:08;;;;;;;;;;;;;;;13.28;50.15;99839.28;5008038;28;19913;-86
2022/03/29 06:32:33;;;;;;;;;;;;;;;13.31;50.68;99839.22;5008544;28;19921;-86
2022/03/29 06:34:59;;;;;;;;;;;;;;;13.21;50.07;99842.09;5009059;28;19928;-85
2022/03/29 06:37:24;;;;;;;;;;;;;;;13.48;49.10;99837.06;5008290;28;20495;-85
2022/03/29 06:39:50;;;;;;;;;;;;;;;13.85;49.06;99835.25;5008548;28;20011;-87
2022/03/29 06:42:18;;;;;;;;;;;;;;;14.22;49.16;99828.97;5023754;28;19917;-85
2022/03/29 06:44:44;;;;;;;;;;;;;;;14.45;48.69;99830.97;5008524;28;19992;-86
2022/03/29 06:47:10;;;;;;;;;;;;;;;14.45;48.55;99828.31;5007195;28;19921;-86
2022/03/29 06:49:36;;;;;;;;;;;;;;;14.84;47.26;99839.59;5007423;28;19917;-87
2022/03/29 06:52:01;;;;;;;;;;;;;;;15.02;47.05;99834.63;5007521;28;19928;-88
2022/03/29 06:54:26;;;;;;;;;;;;;;;15.46;46.73;99827.03;5040473;28;19928;-85
2022/03/29 06:56:52;;;;;;;;;;;;;;;15.79;43.98;99818.84;5008002;28;19928;-85
2022/03/29 06:59:18;;;;;;;;;;;;;;;16.20;44.87;99815.63;5008371;28;19928;-87
2022/03/29 07:01:44;;;;;;;;;;;;;;;16.52;42.94;99814.44;5006697;28;19922;-85
2022/03/29 07:04:09;;;;;;;;;;;;;;;16.53;40.02;99809.97;5008688;28;19929;-86
2022/03/29 07:06:34;;;;;;;;;;;;;;;16.14;38.84;99813.19;5008036;28;20301;-88
2022/03/29 07:11:45;;;;;;;;;;;;;;;16.72;37.39;99803.03;5008255;28;19953;-87
2022/03/29 07:14:12;;;;;;;;;;;;;;;16.65;37.17;99806.84;5039552;28;19929;-88
2022/03/29 07:16:39;;;;;;;;;;;;;;;16.97;38.21;99802.97;5007742;28;19922;-87
2022/03/29 07:19:04;;;;;;;;;;;;;;;17.47;36.03;99799.19;5007355;28;19922;-88
2022/03/29 07:21:30;;;;;;;;;;;;;;;17.68;37.32;99797.41;5040174;28;19941;-90
2022/03/29 07:23:55;;;;;;;;;;;;;;;17.90;37.75;99796.50;5007300;28;19917;-90
2022/03/29 07:26:21;;;;;;;;;;;;;;;18.13;35.80;99786.63;5022716;28;20465;-89
2022/03/29 07:28:47;;;;;;;;;;;;;;;18.08;36.19;99790.34;5039620;28;19921;-88
2022/03/29 07:31:12;;;;;;;;;;;;;;;18.31;37.33;99791.13;5007813;28;19921;-88
2022/03/29 07:33:38;;;;;;;;;;;;;;;17.97;37.17;99791.78;5007839;28;19921;-87
2022/03/29 07:36:03;;;;;;;;;;;;;;;18.16;36.84;99783.81;5007847;28;20261;-88
2022/03/29 07:38:29;;;;;;;;;;;;;;;18.55;36.36;99782.94;5038923;28;20674;-88
2022/03/29 07:40:54;;;;;;;;;;;;;;;18.55;36.81;99785.59;5012137;28;19926;-87
2022/03/29 07:43:20;;;;;;;;;;;;;;;18.59;36.34;99782.72;5029124;28;19942;-86
2022/03/29 07:45:45;;;;;;;;;;;;;;;18.79;35.16;99780.91;5045760;28;19939;-85
2022/03/29 07:48:10;;;;;;;;;;;;;;;18.88;37.17;99769.81;5014241;28;20016;-87
2022/03/29 07:50:36;;;;;;;;;;;;;;;18.58;37.18;99775.66;5014110;28;19924;-86
2022/03/29 07:53:03;;;;;;;;;;;;;;;18.32;38.29;99768.84;5013964;28;19925;-85
2022/03/29 07:55:28;;;;;;;;;;;;;;;18.81;36.22;99764.81;5029217;28;20197;-85
2022/03/29 07:57:53;;;;;;;;;;;;;;;19.14;35.00;99765.03;5045683;28;20408;-87
2022/03/29 08:00:35;;;;;;;;;;;;;;;19.29;35.01;99766.94;5013901;28;20366;-85
2022/03/29 08:03:15;;;;;;;;;;;;;;;19.36;35.44;99763.94;5014288;28;19924;-85
2022/03/29 08:05:41;;;;;;;;;;;;;;;19.25;38.36;99760.00;5029076;28;19921;-86
2022/03/29 08:08:07;;;;;;;;;;;;;;;19.60;37.96;99754.69;5013547;28;20004;-85
2022/03/29 08:10:32;;;;;;;;;;;;;;;19.57;38.10;99753.94;5013630;28;20011;-87
2022/03/29 08:12:59;;;;;;;;;;;;;;;19.53;35.87;99750.56;5013730;28;20016;-86
2022/03/29 08:15:25;;;;;;;;;;;;;;;19.30;36.12;99747.25;5014159;28;19918;-86
2022/03/29 08:17:50;;;;;;;;;;;;;;;18.79;36.10;99740.84;5013547;28;20315;-86
2022/03/29 08:20:16;;;;;;;;;;;;;;;18.65;38.11;99744.16;5013739;28;19960;-86
2022/03/29 08:22:50;;;;;;;;;;;;;;;19.04;36.96;99737.00;5013569;28;19925;-86
2022/03/29 08:25:16;;;;;;;;;;;;;;;19.53;35.44;99734.53;5013238;28;19925;-86
2022/03/29 08:27:42;;;;;;;;;;;;;;;20.22;34.27;99727.38;5013819;28;19928;-86
2022/03/29 08:30:09;;;;;;;;;;;;;;;20.49;33.72;99722.28;5013182;28;19925;-86
2022/03/29 08:32:35;;;;;;;;;;;;;;;19.80;37.24;99718.00;5013251;28;19923;-86
2022/03/29 08:35:00;;;;;;;;;;;;;;;20.15;36.35;99715.25;5012972;28;19925;-86
2022/03/29 08:37:26;;;;;;;;;;;;;;;20.28;34.51;99704.72;5012993;28;19925;-87
2022/03/29 08:39:51;;;;;;;;;;;;;;;20.50;34.30;99702.59;5013483;28;19918;-86
2022/03/29 08:42:18;;;;;;;;;;;;;;;20.79;33.80;99696.56;5013303;28;19921;-87
2022/03/29 08:44:44;;;;;;;;;;;;;;;20.74;34.07;99688.78;5013283;28;19943;-88
2022/03/29 08:47:09;;;;;;;;;;;;;;;20.59;37.10;99685.16;5044862;28;19926;-88
2022/03/29 08:49:35;;;;;;;;;;;;;;;20.57;35.18;99676.31;5013215;28;19975;-88
2022/03/29 08:52:01;;;;;;;;;;;;;;;20.68;33.84;99678.41;5010782;28;19983;-90
2022/03/29 08:54:27;;;;;;;;;;;;;;;20.45;32.13;99677.00;5025321;28;20392;-89
2022/03/29 08:56:52;;;;;;;;;;;;;;;20.61;33.05;99669.84;5010409;28;20657;-86
2022/03/29 08:59:18;;;;;;;;;;;;;;;21.06;31.15;99667.28;5009699;28;19933;-88
2022/03/29 09:01:44;;;;;;;;;;;;;;;21.04;30.41;99656.66;5010749;28;19922;-87
2022/03/29 09:04:13;;;;;;;;;;;;;;;20.93;32.19;99664.47;5010270;28;19918;-93
2022/03/29 09:06:50;;;;;;;;;;;;;;;21.13;33.00;99649.88;5025470;28;19928;-89
2022/03/29 09:09:21;;;;;;;;;;;;;;;21.05;30.96;99647.66;5009454;28;19979;-89
2022/03/29 09:11:47;;;;;;;;;;;;;;;21.32;30.75;99646.97;5042646;28;19979;-89
2022/03/29 09:14:12;;;;;;;;;;;;;;;21.26;31.17;99640.13;5009965;28;19925;-91
2022/03/29 09:16:38;;;;;;;;;;;;;;;21.37;31.18;99635.94;5025333;28;19922;-90
2022/03/29 09:19:04;;;;;;;;;;;;;;;21.57;29.33;99632.09;5042072;28;20029;-90
2022/03/29 09:21:38;;;;;;;;;;;;;;;21.54;29.37;99627.75;5025851;28;20008;-92
2022/03/29 09:24:08;;;;;;;;;;;;;;;21.31;30.43;99623.75;5010303;28;19944;-92
2022/03/29 09:26:36;;;;;;;;;;;;;;;20.72;29.97;99621.00;5026132;28;19926;-92
2022/03/29 09:29:01;;;;;;;;;;;;;;;20.44;29.89;99614.53;5026285;28;19921;-95
2022/03/29 09:31:27;;;;;;;;;;;;;;;20.26;30.77;99608.41;5025991;28;19933;-92
2022/03/29 09:34:12;;;;;;;;;;;;;;;20.44;31.33;99603.81;5026000;28;20636;-91
2022/03/29 09:36:44;;;;;;;;;;;;;;;20.81;30.88;99603.53;5009657;28;19933;-91
2022/03/29 09:39:28;;;;;;;;;;;;;;;21.06;30.86;99597.56;5027281;28;19968;-91
2022/03/29 09:41:58;;;;;;;;;;;;;;;20.83;30.33;99599.78;5025405;28;19917;-90
2022/03/29 09:44:32;;;;;;;;;;;;;;;20.28;30.81;99595.81;5025538;28;20012;-93
2022/03/29 09:47:09;;;;;;;;;;;;;;;19.96;32.15;99589.56;5024535;28;19913;-90
2022/03/29 09:49:50;;;;;;;;;;;;;;;20.03;29.88;99591.81;5009821;28;19918;-89
2022/03/29 09:52:17;;;;;;;;;;;;;;;20.14;30.46;99582.31;5041102;28;19914;-90
2022/03/29 09:55:02;;;;;;;;;;;;;;;20.31;29.62;99584.03;5025174;28;19921;-93
2022/03/29 09:57:38;;;;;;;;;;;;;;;20.30;29.60;99572.47;5025346;28;20384;-90
2022/03/29 10:00:07;;;;;;;;;;;;;;;20.56;29.85;99573.63;5025563;28;19924;-92
2022/03/29 10:02:36;;;;;;;;;;;;;;;20.44;29.35;99560.09;5025015;28;20007;-94
2022/03/29 10:05:02;;;;;;;;;;;;;;;20.66;28.42;99552.53;5027508;28;19932;-92
2022/03/29 10:07:29;;;;;;;;;;;;;;;20.48;29.27;99548.22;5025167;28;19917;-91
2022/03/29 10:09:55;;;;;;;;;;;;;;;20.67;27.69;99542.72;5009430;28;19995;-89
2022/03/29 10:12:23;;;;;;;;;;;;;;;20.55;31.95;99537.06;5009523;28;20355;-89
2022/03/29 10:14:49;;;;;;;;;;;;;;;20.37;29.80;99535.47;5024580;28;19925;-92
2022/03/29 10:17:15;;;;;;;;;;;;;;;20.23;29.32;99533.59;5023582;28;19921;-93
2022/03/29 10:19:42;;;;;;;;;;;;;;;20.12;29.84;99525.31;5023565;28;20012;-91
2022/03/29 10:22:08;;;;;;;;;;;;;;;20.37;29.59;99525.63;5023817;28;19925;-89
2022/03/29 10:24:33;;;;;;;;;;;;;;;20.25;29.09;99498.69;5024110;28;19918;-87
2022/03/29 10:27:00;;;;;;;;;;;;;;;20.37;29.33;99514.91;5008325;28;19964;-88
2022/03/29 10:29:26;;;;;;;;;;;;;;;20.42;28.61;99511.09;5008030;28;19929;-90
2022/03/29 10:31:52;;;;;;;;;;;;;;;20.68;28.26;99509.56;5040575;28;19950;-88
2022/03/29 10:34:19;;;;;;;;;;;;;;;21.16;27.66;99502.19;5008813;28;19937;-90
2022/03/29 10:37:00;;;;;;;;;;;;;;;20.70;28.01;99497.81;5007760;28;19917;-90
2022/03/29 10:39:45;;;;;;;;;;;;;;;20.70;28.59;99496.97;5008500;28;19940;-89
2022/03/29 10:42:28;;;;;;;;;;;;;;;20.72;27.59;99490.53;5040058;28;19929;-91
2022/03/29 10:45:00;;;;;;;;;;;;;;;20.61;28.93;99487.63;5008523;28;19921;-88
2022/03/29 10:47:26;;;;;;;;;;;;;;;20.81;27.95;99483.78;5007840;28;19925;-88
2022/03/29 10:49:52;;;;;;;;;;;;;;;20.63;27.81;99482.16;5008285;28;19924;-89
2022/03/29 10:52:20;;;;;;;;;;;;;;;20.57;27.25;99480.72;5008677;28;19917;-90
2022/03/29 10:54:47;;;;;;;;;;;;;;;20.83;27.73;99476.50;5007355;28;19953;-88
2022/03/29 10:57:20;;;;;;;;;;;;;;;20.88;27.53;99479.78;5008919;28;19956;-90
2022/03/29 11:00:05;;;;;;;;;;;;;;;21.29;26.86;99465.59;5039263;28;20013;-88
2022/03/29 11:02:32;;;;;;;;;;;;;;;21.32;27.66;99463.66;5026190;28;19964;-89
2022/03/29 11:05:08;;;;;;;;;;;;;;;21.01;27.21;99458.41;5023463;28;19984;-90
2022/03/29 11:07:35;;;;;;;;;;;;;;;20.70;27.42;99456.78;5023430;28;19991;-88
2022/03/29 11:10:07;;;;;;;;;;;;;;;20.85;27.86;99458.50;5007975;28;20396;-87
2022/03/29 11:12:36;;;;;;;;;;;;;;;21.22;27.66;99444.63;5007635;28;19917;-84
2022/03/29 11:15:22;;;;;;;;;;;;;;;21.74;28.22;99438.63;5022355;28;19933;-85
2022/03/29 11:17:47;;;;;;;;;;;;;;;21.48;28.57;99442.09;5007052;28;19925;-85
2022/03/29 11:20:32;;;;;;;;;;;;;;;21.46;27.26;99428.78;5007730;28;20012;-86
2022/03/29 11:23:18;;;;;;;;;;;;;;;21.24;26.96;99432.84;5039473;28;19941;-90
2022/03/29 11:25:50;;;;;;;;;;;;;;;21.21;27.48;99422.31;5022651;28;19925;-90
2022/03/29 11:28:16;;;;;;;;;;;;;;;21.40;27.58;99415.78;5007267;28;20403;-88
2022/03/29 11:30:42;;;;;;;;;;;;;;;21.43;28.54;99405.69;5008174;28;19925;-90
2022/03/29 11:33:08;;;;;;;;;;;;;;;21.47;27.58;99406.34;5022662;28;19926;-89
2022/03/29 11:35:34;;;;;;;;;;;;;;;21.36;27.16;99411.53;5007948;28;20354;-86
2022/03/29 11:38:10;;;;;;;;;;;;;;;21.68;28.33;99404.13;5022916;28;19925;-89
2022/03/29 11:40:36;;;;;;;;;;;;;;;21.94;29.05;99394.34;5039363;28;19921;-89
2022/03/29 11:43:05;;;;;;;;;;;;;;;22.10;28.53;99394.16;5006970;28;19957;-89
2022/03/29 11:45:35;;;;;;;;;;;;;;;22.40;26.58;99390.41;5022532;28;20839;-91
2022/03/29 11:48:04;;;;;;;;;;;;;;;22.46;27.28;99391.78;5023096;28;19927;-94
2022/03/29 11:50:33;;;;;;;;;;;;;;;22.48;25.58;99381.81;5039151;28;19932;-91
2022/03/29 11:52:58;;;;;;;;;;;;;;;22.00;25.60;99382.34;5040066;28;20015;-92
2022/03/29 11:55:25;;;;;;;;;;;;;;;21.72;25.74;99378.81;5038892;28;20008;-93
2022/03/29 11:57:51;;;;;;;;;;;;;;;21.89;26.07;99377.69;5022722;28;19922;-89
2022/03/29 12:00:23;;;;;;;;;;;;;;;21.91;25.54;99378.44;5007023;28;19926;-90
2022/03/29 12:02:49;;;;;;;;;;;;;;;21.94;27.38;99367.50;5007724;28;19952;-89
2022/03/29 12:05:20;;;;;;;;;;;;;;;21.66;26.46;99364.91;5007752;28;19924;-91
2022/03/29 12:07:46;;;;;;;;;;;;;;;22.06;26.91;99359.56;5008001;28;19917;-91
2022/03/29 12:10:13;;;;;;;;;;;;;;;22.39;25.95;99363.63;5022826;28;20629;-90
2022/03/29 12:12:38;;;;;;;;;;;;;;;22.30;25.58;99360.59;5007007;28;19917;-89
2022/03/29 12:15:06;;;;;;;;;;;;;;;22.59;25.60;99352.34;5022534;28;19951;-91
2022/03/29 12:17:31;;;;;;;;;;;;;;;22.20;26.96;99353.25;5007838;28;19921;-91
2022/03/29 12:19:57;;;;;;;;;;;;;;;22.50;25.40;99345.78;5038791;28;19928;-88
2022/03/29 12:22:25;;;;;;;;;;;;;;;22.68;25.81;99350.84;5022400;28;19921;-90
2022/03/29 12:24:55;;;;;;;;;;;;;;;22.81;25.97;99343.59;5022283;28;19980;-93
2022/03/29 12:27:20;;;;;;;;;;;;;;;23.02;25.55;99343.06;5040438;28;19952;-88
2022/03/29 12:29:49;;;;;;;;;;;;;;;22.90;26.50;99339.41;5011231;28;20375;-89
2022/03/29 12:32:15;;;;;;;;;;;;;;;23.00;25.43;99336.91;5042997;28;19929;-91
2022/03/29 12:34:41;;;;;;;;;;;;;;;22.82;25.21;99331.91;5042895;28;19921;-92
2022/03/29 12:37:12;;;;;;;;;;;;;;;22.87;27.44;99332.41;5026122;28;19921;-90
2022/03/29 12:39:38;;;;;;;;;;;;;;;22.97;26.43;99329.06;5026561;28;19921;-91
2022/03/29 12:42:04;;;;;;;;;;;;;;;23.09;24.93;99321.97;5027042;28;19928;-92
2022/03/29 12:44:38;;;;;;;;;;;;;;;22.96;30.45;99314.75;5042748;28;19917;-90
2022/03/29 12:47:05;;;;;;;;;;;;;;;23.31;26.40;99316.75;5025955;28;19922;-88
2022/03/29 12:49:31;;;;;;;;;;;;;;;23.35;26.53;99312.84;5042406;28;19929;-90
2022/03/29 12:51:59;;;;;;;;;;;;;;;23.24;27.01;99304.72;5010681;28;19918;-91
2022/03/29 12:54:36;;;;;;;;;;;;;;;23.49;26.08;99300.19;5024773;28;19932;-90